createdAt,value
2022-12-12T00:02:03.651Z,-11147.84
2022-12-12T00:05:15.547Z,-11144.19
2022-12-12T00:08:21.667Z,-11145.88
2022-12-12T00:11:28.262Z,-11142.66
2022-12-12T00:14:34.334Z,-11146.72
2022-12-12T00:17:40.477Z,-11142.50
2022-12-12T00:20:52.850Z,-11142.78
2022-12-12T00:23:59.461Z,-11146.00
2022-12-12T00:27:05.339Z,-11135.34
2022-12-12T00:30:12.459Z,-11134.50
2022-12-12T00:33:18.763Z,-11137.31
2022-12-12T00:36:29.445Z,-11139.41
2022-12-12T00:39:35.730Z,-11141.38
2022-12-12T00:42:41.616Z,-11136.88
2022-12-12T00:45:47.920Z,-11140.41
2022-12-12T00:48:56.507Z,-11136.59
2022-12-12T00:52:04.263Z,-11131.81
2022-12-12T00:55:13.140Z,-11129.31
2022-12-12T00:58:19.388Z,-11128.47
2022-12-12T01:01:27.845Z,-11127.19
2022-12-12T01:04:33.985Z,-11126.34
2022-12-12T01:07:42.029Z,-11123.97
2022-12-12T01:10:48.485Z,-11124.66
2022-12-12T01:13:55.952Z,-11119.59
2022-12-12T01:17:02.266Z,-11112.72
2022-12-12T01:20:16.006Z,-11124.53
2022-12-12T01:23:23.602Z,-11123.97
2022-12-12T01:26:29.937Z,-11114.00
2022-12-12T01:29:36.722Z,-11112.88
2022-12-12T01:32:42.995Z,-11114.41
2022-12-12T01:35:49.089Z,-11123.41
2022-12-12T01:38:57.595Z,-11118.06
2022-12-12T01:42:03.647Z,-11108.22
2022-12-12T01:45:30.653Z,-11117.50
2022-12-12T01:48:40.742Z,-11111.03
2022-12-12T01:51:49.477Z,-11108.22
2022-12-12T01:54:59.823Z,-11113.28
2022-12-12T01:58:06.461Z,-11108.50
2022-12-12T02:01:13.102Z,-11093.34
2022-12-12T02:04:19.785Z,-11108.37
2022-12-12T02:07:25.914Z,-11099.81
2022-12-12T02:10:33.932Z,-11094.19
2022-12-12T02:13:40.449Z,-11080.28
2022-12-12T02:16:59.580Z,-11101.63
2022-12-12T02:20:44.843Z,-11091.09
2022-12-12T02:24:30.941Z,-11093.34
2022-12-12T02:27:56.719Z,-11094.88
2022-12-12T02:31:16.763Z,-11096.56
2022-12-12T02:34:34.853Z,-11094.47
2022-12-12T02:37:46.273Z,-11092.94
2022-12-12T02:41:02.727Z,-11088.44
2022-12-12T02:44:18.147Z,-11075.81
2022-12-12T02:47:31.132Z,-11088.72
2022-12-12T02:50:38.616Z,-11086.59
2022-12-12T02:53:45.201Z,-11086.03
2022-12-12T02:56:54.904Z,-11086.88
2022-12-12T03:00:03.788Z,-11084.06
2022-12-12T03:03:46.445Z,-11071.44
2022-12-12T03:07:20.006Z,-11083.66
2022-12-12T03:10:38.542Z,-11084.78
2022-12-12T03:13:50.881Z,-11079.03
2022-12-12T03:17:04.366Z,-11068.63
2022-12-12T03:20:19.683Z,-11077.47
2022-12-12T03:23:29.802Z,-11067.09
2022-12-12T03:26:45.341Z,-11075.81
2022-12-12T03:29:56.752Z,-11078.75
2022-12-12T03:33:12.869Z,-11074.81
2022-12-12T03:36:25.738Z,-11079.16
2022-12-12T03:39:36.855Z,-11077.06
2022-12-12T03:42:47.127Z,-11080.84
2022-12-12T03:45:59.728Z,-11075.09
2022-12-12T03:49:09.763Z,-11062.19
2022-12-12T03:52:24.279Z,-11057.97
2022-12-12T03:55:39.003Z,-11066.94
2022-12-12T03:58:50.647Z,-11062.47
2022-12-12T04:02:01.599Z,-11069.75
2022-12-12T04:05:16.409Z,-11067.50
2022-12-12T04:08:24.081Z,-11060.34
2022-12-12T04:11:57.269Z,-11059.94
2022-12-12T04:15:23.368Z,-11058.13
2022-12-12T04:18:39.049Z,-11070.75
2022-12-12T04:22:08.639Z,-11061.19
2022-12-12T04:25:28.158Z,-11072.00
2022-12-12T04:28:35.930Z,-11065.84
2022-12-12T04:31:46.822Z,-11066.94
2022-12-12T04:34:58.833Z,-11070.88
2022-12-12T04:38:07.539Z,-11070.88
2022-12-12T04:41:17.403Z,-11073.12
2022-12-12T04:44:25.995Z,-11074.25
2022-12-12T04:47:33.303Z,-11070.88
2022-12-12T04:50:40.981Z,-11065.41
2022-12-12T04:53:54.342Z,-11063.72
2022-12-12T04:57:05.106Z,-11073.84
2022-12-12T05:00:13.862Z,-11067.22
2022-12-12T05:03:26.319Z,-11059.66
2022-12-12T05:06:38.297Z,-11059.38
2022-12-12T05:09:45.301Z,-11069.75
2022-12-12T05:12:58.682Z,-11072.28
2022-12-12T05:16:14.113Z,-11049.97
2022-12-12T05:19:20.230Z,-11066.81
2022-12-12T05:22:26.392Z,-11071.88
2022-12-12T05:25:32.763Z,-11057.97
2022-12-12T05:28:40.213Z,-11059.81
2022-12-12T05:31:46.269Z,-11071.31
2022-12-12T05:34:52.720Z,-11063.16
2022-12-12T05:37:59.183Z,-11064.56
2022-12-12T05:41:06.584Z,-11064.28
2022-12-12T05:44:14.039Z,-11065.84
2022-12-12T05:47:20.328Z,-11065.56
2022-12-12T05:50:26.369Z,-11062.19
2022-12-12T05:53:36.404Z,-11065.84
2022-12-12T05:56:48.653Z,-11062.88
2022-12-12T05:59:56.070Z,-11059.81
2022-12-12T06:03:02.209Z,-11065.56
2022-12-12T06:06:08.474Z,-11064.72
2022-12-12T06:09:14.505Z,-11066.66
2022-12-12T06:12:20.711Z,-11067.50
2022-12-12T06:15:28.352Z,-11062.75
2022-12-12T06:18:34.818Z,-11058.81
2022-12-12T06:21:40.832Z,-11068.34
2022-12-12T06:24:47.056Z,-11068.78
2022-12-12T06:27:53.564Z,-11071.16
2022-12-12T06:31:03.586Z,-11071.16
2022-12-12T06:34:12.049Z,-11058.81
2022-12-12T06:37:18.100Z,-11064.16
2022-12-12T06:40:24.320Z,-11062.19
2022-12-12T06:43:30.858Z,-11058.53
2022-12-12T06:46:38.764Z,-11065.69
2022-12-12T06:49:44.976Z,-11075.94
2022-12-12T06:52:51.231Z,-11065.13
2022-12-12T06:55:57.388Z,-11070.19
2022-12-12T06:59:03.354Z,-11074.25
2022-12-12T07:02:12.755Z,-11078.88
2022-12-12T07:05:19.609Z,-11078.19
2022-12-12T07:08:25.692Z,-11081.56
2022-12-12T07:11:31.982Z,-11081.97
2022-12-12T07:14:40.497Z,-11079.16
2022-12-12T07:17:48.232Z,-11079.88
2022-12-12T07:20:54.500Z,-11083.50
2022-12-12T07:24:00.660Z,-11088.16
2022-12-12T07:27:07.735Z,-11092.09
2022-12-12T07:30:14.132Z,-11087.16
2022-12-12T07:33:21.801Z,-11091.94
2022-12-12T07:36:28.018Z,-11092.94
2022-12-12T07:39:35.145Z,-11097.00
2022-12-12T07:42:41.322Z,-11091.38
2022-12-12T07:45:48.088Z,-11095.88
2022-12-12T07:48:55.784Z,-11101.06
2022-12-12T07:52:03.042Z,-11093.91
2022-12-12T07:55:11.279Z,-11089.97
2022-12-12T07:58:17.415Z,-11077.63
2022-12-12T08:01:25.482Z,-11098.13
2022-12-12T08:04:33.239Z,-11102.06
2022-12-12T08:07:39.762Z,-11100.09
2022-12-12T08:10:46.120Z,-11108.78
2022-12-12T08:13:53.367Z,-11112.72
2022-12-12T08:17:00.068Z,-11109.63
2022-12-12T08:20:08.453Z,-11114.97
2022-12-12T08:23:14.539Z,-11119.47
2022-12-12T08:26:20.948Z,-11123.41
2022-12-12T08:29:27.165Z,-11125.66
2022-12-12T08:32:33.398Z,-11132.66
2022-12-12T08:35:41.130Z,-11150.09
2022-12-12T08:38:48.247Z,-11138.00
2022-12-12T08:41:54.424Z,-11145.19
2022-12-12T08:45:00.541Z,-11143.91
2022-12-12T08:48:07.747Z,-11144.06
2022-12-12T08:51:15.246Z,-11152.63
2022-12-12T08:54:21.277Z,-11167.94
2022-12-12T08:57:27.712Z,-11168.94
2022-12-12T09:00:33.909Z,-11163.31
2022-12-12T09:03:40.282Z,-11160.50
2022-12-12T09:06:48.132Z,-11165.28
2022-12-12T09:09:54.527Z,-11146.44
2022-12-12T09:13:00.819Z,-11153.19
2022-12-12T09:16:08.922Z,-11163.44
2022-12-12T09:19:15.112Z,-11169.50
2022-12-12T09:22:22.723Z,-11168.09
2022-12-12T09:25:29.053Z,-11161.63
2022-12-12T09:28:36.308Z,-11162.59
2022-12-12T09:31:42.751Z,-11171.47
2022-12-12T09:34:49.176Z,-11157.69
2022-12-12T09:37:56.850Z,-11172.31
2022-12-12T09:41:05.505Z,-11176.50
2022-12-12T09:44:16.065Z,-11163.31
2022-12-12T09:47:35.043Z,-11171.75
2022-12-12T09:50:50.431Z,-11183.13
2022-12-12T09:53:58.684Z,-11180.31
2022-12-12T09:57:17.654Z,-11167.94
2022-12-12T10:00:23.819Z,-11181.56
2022-12-12T10:03:45.840Z,-11157.25
2022-12-12T10:06:58.477Z,-11160.50
2022-12-12T10:10:18.693Z,-11162.19
2022-12-12T10:13:28.062Z,-11168.94
2022-12-12T10:16:34.862Z,-11160.22
2022-12-12T10:19:50.396Z,-11160.50
2022-12-12T10:23:03.333Z,-11145.88
2022-12-12T10:26:16.611Z,-11157.53
2022-12-12T10:29:26.157Z,-11156.84
2022-12-12T10:32:41.881Z,-11157.25
2022-12-12T10:35:56.825Z,-11159.94
2022-12-12T10:39:14.279Z,-11182.41
2022-12-12T10:42:27.542Z,-11184.09
2022-12-12T10:46:11.042Z,-11179.88
2022-12-12T10:49:20.216Z,-11183.81
2022-12-12T10:52:26.948Z,-11187.47
2022-12-12T10:55:42.331Z,-11214.19
2022-12-12T10:58:56.199Z,-11224.31
2022-12-12T11:02:10.604Z,-11220.66
2022-12-12T11:05:21.272Z,-11232.91
2022-12-12T11:08:30.267Z,-11220.94
2022-12-12T11:11:37.075Z,-11243.19
2022-12-12T11:14:49.287Z,-11241.06
2022-12-12T11:18:01.272Z,-11256.97
2022-12-12T11:21:14.627Z,-11262.44
2022-12-12T11:24:23.255Z,-11265.97
2022-12-12T11:27:33.702Z,-11253.72
2022-12-12T11:30:44.823Z,-11264.84
2022-12-12T11:33:54.719Z,-11241.75
2022-12-12T11:37:01.581Z,-11254.44
2022-12-12T11:40:23.954Z,-11240.34
2022-12-12T11:43:31.945Z,-11269.63
2022-12-12T11:46:39.795Z,-11252.75
2022-12-12T11:49:48.974Z,-11251.47
2022-12-12T11:52:57.452Z,-11235.88
2022-12-12T11:56:21.640Z,-11264.84
2022-12-12T11:59:56.995Z,-11278.34
2022-12-12T12:03:32.560Z,-11287.91
2022-12-12T12:06:57.405Z,-11267.38
2022-12-12T12:10:22.541Z,-11281.44
2022-12-12T12:13:44.109Z,-11275.13
2022-12-12T12:16:59.435Z,-11268.38
2022-12-12T12:20:19.271Z,-11265.97
2022-12-12T12:23:41.837Z,-11265.97
2022-12-12T12:27:01.045Z,-11254.44
2022-12-12T12:30:26.206Z,-11241.63
2022-12-12T12:33:52.408Z,-11253.16
2022-12-12T12:37:20.437Z,-11248.94
2022-12-12T12:40:45.442Z,-11250.63
2022-12-12T12:44:04.726Z,-11243.75
2022-12-12T12:47:25.316Z,-11235.16
2022-12-12T12:50:35.934Z,-11261.75
2022-12-12T12:53:47.593Z,-11265.28
2022-12-12T12:57:01.010Z,-11265.41
2022-12-12T13:00:10.854Z,-11251.63
2022-12-12T13:03:22.944Z,-11254.44
2022-12-12T13:06:39.500Z,-11243.19
2022-12-12T13:09:54.002Z,-11253.16
2022-12-12T13:13:05.807Z,-11239.50
2022-12-12T13:16:15.443Z,-11242.03
2022-12-12T13:19:30.709Z,-11241.34
2022-12-12T13:22:47.298Z,-11239.78
2022-12-12T13:26:02.266Z,-11240.50
2022-12-12T13:29:26.503Z,-11240.34
2022-12-12T13:33:00.607Z,-11231.78
2022-12-12T13:36:16.103Z,-11227.56
2022-12-12T13:39:30.152Z,-11226.28
2022-12-12T13:42:56.345Z,-11214.06
2022-12-12T13:46:38.235Z,-11206.59
2022-12-12T13:49:51.758Z,-11199.00
2022-12-12T13:53:21.112Z,-11208.28
2022-12-12T13:56:42.334Z,-11209.41
2022-12-12T14:00:24.558Z,-11210.81
2022-12-12T14:03:32.040Z,-11207.44
2022-12-12T14:06:38.583Z,-11203.09
2022-12-12T14:09:49.340Z,-11200.28
2022-12-12T14:12:56.758Z,-11195.06
2022-12-12T14:16:08.126Z,-11185.38
2022-12-12T14:19:30.044Z,-11188.03
2022-12-12T14:23:09.860Z,-11185.09
2022-12-12T14:26:48.356Z,-11183.69
2022-12-12T14:29:54.901Z,-11183.81
2022-12-12T14:33:12.990Z,-11182.97
2022-12-12T14:37:00.843Z,-11176.22
2022-12-12T14:40:15.899Z,-11170.34
2022-12-12T14:43:26.734Z,-11169.78
2022-12-12T14:46:33.283Z,-11169.50
2022-12-12T14:49:41.436Z,-11170.34
2022-12-12T14:52:47.780Z,-11158.25
2022-12-12T14:55:58.508Z,-11160.78
2022-12-12T14:59:08.258Z,-11159.09
2022-12-12T15:02:21.136Z,-11157.25
2022-12-12T15:05:28.706Z,-11154.31
2022-12-12T15:08:35.211Z,-11149.38
2022-12-12T15:11:41.417Z,-11154.72
2022-12-12T15:14:56.088Z,-11150.78
2022-12-12T15:18:03.169Z,-11152.06
2022-12-12T15:21:10.809Z,-11151.50
2022-12-12T15:24:23.182Z,-11143.91
2022-12-12T15:27:32.733Z,-11154.03
2022-12-12T15:30:42.029Z,-11145.72
2022-12-12T15:33:49.756Z,-11141.53
2022-12-12T15:36:57.263Z,-11144.75
2022-12-12T15:40:20.183Z,-11147.84
2022-12-12T15:43:28.529Z,-11145.19
2022-12-12T15:46:35.147Z,-11144.91
2022-12-12T15:49:44.380Z,-11150.38
2022-12-12T15:53:05.734Z,-11149.25
2022-12-12T15:56:14.324Z,-11145.47
2022-12-12T15:59:30.192Z,-11147.41
2022-12-12T16:02:37.221Z,-11151.22
2022-12-12T16:05:44.106Z,-11150.50
2022-12-12T16:09:00.686Z,-11146.44
2022-12-12T16:12:07.205Z,-11142.50
2022-12-12T16:15:29.055Z,-11147.56
2022-12-12T16:18:36.175Z,-11139.97
2022-12-12T16:21:44.045Z,-11153.47
2022-12-12T16:24:54.609Z,-11154.03
2022-12-12T16:28:12.771Z,-11149.94
2022-12-12T16:31:19.713Z,-11148.53
2022-12-12T16:34:25.757Z,-11144.19
2022-12-12T16:37:28.516Z,-11153.47
2022-12-12T16:40:36.385Z,-11156.56
2022-12-12T16:43:43.372Z,-11158.09
2022-12-12T16:46:49.945Z,-11161.75
2022-12-12T16:49:56.229Z,-11157.41
2022-12-12T16:53:02.238Z,-11161.06
2022-12-12T16:56:12.567Z,-11151.78
2022-12-12T16:59:18.931Z,-11151.22
2022-12-12T17:02:25.873Z,-11148.81
2022-12-12T17:05:32.565Z,-11150.78
2022-12-12T17:08:39.271Z,-11148.69
2022-12-12T17:11:47.269Z,-11148.13
2022-12-12T17:14:53.462Z,-11149.81
2022-12-12T17:18:00.180Z,-11139.97
2022-12-12T17:21:07.120Z,-11142.22
2022-12-12T17:24:14.048Z,-11145.03
2022-12-12T17:27:21.848Z,-11141.66
2022-12-12T17:30:27.928Z,-11138.44
2022-12-12T17:33:33.969Z,-11139.97
2022-12-12T17:36:40.212Z,-11137.72
2022-12-12T17:39:46.381Z,-11147.00
2022-12-12T17:42:53.949Z,-11145.72
2022-12-12T17:46:02.202Z,-11145.88
2022-12-12T17:49:08.308Z,-11143.34
2022-12-12T17:52:14.412Z,-11141.38
2022-12-12T17:55:52.001Z,-11142.78
2022-12-12T17:58:49.673Z,-11142.38
2022-12-12T18:01:56.042Z,-11139.00
2022-12-12T18:05:03.787Z,-11138.00
2022-12-12T18:08:12.661Z,-11127.34
2022-12-12T18:11:23.510Z,-11131.69
2022-12-12T18:14:31.199Z,-11128.47
2022-12-12T18:17:37.639Z,-11127.91
2022-12-12T18:20:44.220Z,-11125.38
2022-12-12T18:23:50.377Z,-11121.44
2022-12-12T18:26:58.452Z,-11122.84
2022-12-12T18:30:06.798Z,-11123.25
2022-12-12T18:33:13.011Z,-11121.44
2022-12-12T18:36:21.037Z,-11124.09
2022-12-12T18:39:27.533Z,-11112.44
2022-12-12T18:42:33.998Z,-11116.38
2022-12-12T18:45:41.750Z,-11112.88
2022-12-12T18:48:49.348Z,-11101.50
2022-12-12T18:51:55.294Z,-11114.56
2022-12-12T18:55:01.554Z,-11105.44
2022-12-12T18:58:07.770Z,-11100.22
2022-12-12T19:01:17.608Z,-11100.09
2022-12-12T19:04:23.934Z,-11092.94
2022-12-12T19:07:31.420Z,-11082.81
2022-12-12T19:10:38.280Z,-11093.63
2022-12-12T19:13:45.134Z,-11091.53
2022-12-12T19:16:52.867Z,-11095.59
2022-12-12T19:19:59.088Z,-11089.00
2022-12-12T19:23:05.770Z,-11087.31
2022-12-12T19:26:15.059Z,-11086.47
2022-12-12T19:29:21.795Z,-11089.97
2022-12-12T19:32:29.539Z,-11089.13
2022-12-12T19:35:38.318Z,-11088.56
2022-12-12T19:38:45.624Z,-11089.13
2022-12-12T19:41:52.104Z,-11081.28
2022-12-12T19:44:58.498Z,-11087.16
2022-12-12T19:48:06.213Z,-11082.81
2022-12-12T19:51:15.306Z,-11090.69
2022-12-12T19:54:22.284Z,-11089.97
2022-12-12T19:57:28.465Z,-11081.28
2022-12-12T20:00:34.980Z,-11087.44
2022-12-12T20:03:43.284Z,-11087.88
2022-12-12T20:06:50.445Z,-11076.78
2022-12-12T20:09:56.982Z,-11081.97
2022-12-12T20:13:03.239Z,-11083.50
2022-12-12T20:16:12.895Z,-11088.16
2022-12-12T20:19:22.255Z,-11077.34
2022-12-12T20:22:28.809Z,-11076.50
2022-12-12T20:25:35.337Z,-11078.75
2022-12-12T20:28:42.014Z,-11080.16
2022-12-12T20:31:48.647Z,-11082.25
2022-12-12T20:34:56.467Z,-11079.03
2022-12-12T20:38:02.690Z,-11077.19
2022-12-12T20:41:11.170Z,-11079.88
2022-12-12T20:44:17.573Z,-11079.03
2022-12-12T20:47:24.001Z,-11073.56
2022-12-12T20:50:31.516Z,-11069.47
2022-12-12T20:53:37.740Z,-11073.41
2022-12-12T20:56:46.297Z,-11080.16
2022-12-12T20:59:54.852Z,-11076.22
2022-12-12T21:03:01.023Z,-11077.63
2022-12-12T21:06:13.739Z,-11082.13
2022-12-12T21:09:25.020Z,-11073.12
2022-12-12T21:12:32.455Z,-11075.81
2022-12-12T21:15:39.059Z,-11083.22
2022-12-12T21:18:45.562Z,-11073.84
2022-12-12T21:21:53.913Z,-11076.63
2022-12-12T21:25:00.032Z,-11073.41
2022-12-12T21:28:06.617Z,-11073.41
2022-12-12T21:31:17.318Z,-11078.59
2022-12-12T21:34:24.341Z,-11070.19
2022-12-12T21:37:35.843Z,-11067.78
2022-12-12T21:40:45.001Z,-11062.75
2022-12-12T21:43:51.559Z,-11064.72
2022-12-12T21:46:57.540Z,-11055.16
2022-12-12T21:50:03.742Z,-11052.06
2022-12-12T21:53:28.430Z,-11060.63
2022-12-12T21:56:34.495Z,-11057.69
2022-12-12T21:59:42.087Z,-11059.09
2022-12-12T22:02:50.215Z,-11050.69
2022-12-12T22:05:56.503Z,-11054.03
2022-12-12T22:09:07.444Z,-11057.13
2022-12-12T22:12:13.383Z,-11071.88
2022-12-12T22:15:25.248Z,-11065.00
2022-12-12T22:18:31.848Z,-11064.00
2022-12-12T22:21:38.356Z,-11068.34
2022-12-12T22:24:45.706Z,-11069.91
2022-12-12T22:27:51.871Z,-11078.47
2022-12-12T22:31:04.812Z,-11069.63
2022-12-12T22:34:14.675Z,-11064.44
2022-12-12T22:37:21.059Z,-11061.91
2022-12-12T22:40:28.506Z,-11064.84
2022-12-12T22:43:36.098Z,-11071.16
2022-12-12T22:46:44.412Z,-11059.81
2022-12-12T22:49:50.947Z,-11061.75
2022-12-12T22:52:57.097Z,-11066.38
2022-12-12T22:56:05.012Z,-11063.31
2022-12-12T22:59:14.084Z,-11057.97
2022-12-12T23:02:24.986Z,-11061.63
2022-12-12T23:05:31.813Z,-11064.00
2022-12-12T23:08:38.061Z,-11054.88
2022-12-12T23:11:46.652Z,-11049.69
2022-12-12T23:14:52.883Z,-11053.91
2022-12-12T23:17:58.961Z,-11050.53
2022-12-12T23:21:05.996Z,-11050.81
2022-12-12T23:24:12.494Z,-11046.88
2022-12-12T23:27:20.025Z,-11043.94
2022-12-12T23:30:26.210Z,-11039.44
2022-12-12T23:33:32.572Z,-11041.13
2022-12-12T23:36:39.211Z,-11042.53
2022-12-12T23:39:45.333Z,-11048.44
2022-12-12T23:42:52.978Z,-11046.47
2022-12-12T23:46:02.721Z,-11047.31
2022-12-12T23:49:14.107Z,-11047.16
2022-12-12T23:52:19.939Z,-11045.78
2022-12-12T23:55:26.136Z,-11050.41
2022-12-12T23:58:33.486Z,-11048.28
